Latest Weather Observations for St Kilda Harbour RMYS

IDV60901

Issued at 8:11 pm EST Thursday 30 June 2022 (issued every 10 minutes, with the page automatically refreshed every 10 minutes)

About weather observations | Map of Melbourne area stations | Latest observations for Melbourne area | Other Formats
Station Details ID: 086220 Name: ST KILDA HARBOUR - RMYS Lat: -37.86 Lon: 144.96 Height: 6.4 m
Data from the previous 72 hours. | See also: Recent months at St Kilda Harbour RMYS
Date/Time
EST
Temp
°C
App
Temp
°C
Dew
Point
°C
Rel
Hum
%
Delta-T
°C
Wind Press
QNH
hPa
Press
MSL
hPa
Rain since
9am
mm
Dir  Spd
km/h
Gust
km/h
Spd
kts
Gust
kts
30/08:00pm - - - - - CALM 0 2 0 1 - - -
30/07:30pm - - - - - NNE 2 4 1 2 - - -
30/07:00pm - - - - - CALM 0 2 0 1 - - -
30/06:30pm - - - - - NE 4 4 2 2 - - -
30/06:00pm - - - - - ESE 6 7 3 4 - - -
30/05:30pm - - - - - SSE 11 13 6 7 - - -
30/05:00pm - - - - - SSE 15 19 8 10 - - -
30/04:30pm - - - - - S 13 17 7 9 - - -
30/04:00pm - - - - - SSE 9 11 5 6 - - -
30/03:30pm - - - - - S 9 13 5 7 - - -
30/03:00pm - - - - - S 13 17 7 9 - - -
30/02:30pm - - - - - S 17 22 9 12 - - -
30/02:00pm - - - - - S 11 15 6 8 - - -
30/01:30pm - - - - - S 15 17 8 9 - - -
30/01:00pm - - - - - S 6 9 3 5 - - -
30/12:30pm - - - - - ESE 2 4 1 2 - - -
30/12:00pm - - - - - SSW 7 9 4 5 - - -
30/11:30am - - - - - SW 6 7 3 4 - - -
30/11:00am - - - - - W 7 9 4 5 - - -
30/10:30am - - - - - W 9 13 5 7 - - -
30/10:00am - - - - - N 7 11 4 6 - - -
30/09:30am - - - - - NNE 6 11 3 6 - - -
30/09:00am - - - - - N 6 13 3 7 - - -
30/08:30am - - - - - NW 4 9 2 5 - - -
30/08:00am - - - - - N 6 9 3 5 - - -
30/07:30am - - - - - N 4 7 2 4 - - -
30/07:00am - - - - - NNE 4 6 2 3 - - -
30/06:30am - - - - - NNE 2 2 1 1 - - -
30/06:00am - - - - - NNE 6 7 3 4 - - -
30/05:30am - - - - - NE 7 7 4 4 - - -
30/05:00am - - - - - W 9 13 5 7 - - -
30/04:30am - - - - - W 15 20 8 11 - - -
30/04:00am - - - - - NNE 9 13 5 7 - - -
30/03:30am - - - - - NNE 9 13 5 7 - - -
30/03:00am - - - - - NNE 11 15 6 8 - - -
30/02:30am - - - - - NNE 9 13 5 7 - - -
30/02:00am - - - - - N 13 20 7 11 - - -
30/01:30am - - - - - NNE 7 11 4 6 - - -
30/01:00am - - - - - N 15 22 8 12 - - -
30/12:30am - - - - - N 15 20 8 11 - - -
30/12:00am - - - - - N 17 24 9 13 - - -
 
Date/Time
EST
Temp
°C
App
Temp
°C
Dew
Point
°C
Rel
Hum
%
Delta-T
°C
Wind Press
QNH
hPa
Press
MSL
hPa
Rain since
9am
mm
Dir  Spd
km/h
Gust
km/h
Spd
kts
Gust
kts
29/11:30pm - - - - - N 24 33 13 18 - - -
29/11:00pm - - - - - N 20 33 11 18 - - -
29/10:30pm - - - - - NNE 19 30 10 16 - - -
29/10:00pm - - - - - N 22 32 12 17 - - -
29/09:30pm - - - - - N 20 32 11 17 - - -
29/09:00pm - - - - - N 22 33 12 18 - - -
29/08:30pm - - - - - N 20 30 11 16 - - -
29/08:00pm - - - - - NNW 17 26 9 14 - - -
29/07:30pm - - - - - N 15 22 8 12 - - -
29/07:00pm - - - - - N 7 9 4 5 - - -
29/06:30pm - - - - - NNE 9 17 5 9 - - -
29/06:00pm - - - - - N 11 19 6 10 - - -
29/05:30pm - - - - - NNE 19 30 10 16 - - -
29/05:00pm - - - - - NNE 22 32 12 17 - - -
29/04:30pm - - - - - NNE 22 33 12 18 - - -
29/04:00pm - - - - - N 19 32 10 17 - - -
29/03:30pm - - - - - N 22 35 12 19 - - -
29/03:00pm - - - - - N 20 30 11 16 - - -
29/02:30pm - - - - - N 24 37 13 20 - - -
29/02:00pm - - - - - N 24 35 13 19 - - -
29/01:30pm - - - - - N 28 39 15 21 - - -
29/01:20pm - - - - - N 28 48 15 26 - - -
29/01:00pm - - - - - N 26 39 14 21 - - -
29/12:30pm - - - - - N 28 44 15 24 - - -
29/12:15pm - - - - - N 30 50 16 27 - - -
29/12:00pm - - - - - N 33 48 18 26 - - -
29/11:31am - - - - - N 30 56 16 30 - - -
29/11:30am - - - - - N 28 46 15 25 - - -
29/11:10am - - - - - N 33 54 18 29 - - -
29/11:00am - - - - - N 37 54 20 29 - - -
29/10:52am - - - - - N 33 54 18 29 - - -
29/10:30am - - - - - N 26 43 14 23 - - -
29/10:00am - - - - - N 19 28 10 15 - - -
29/09:30am - - - - - NNW 20 28 11 15 - - -
29/09:00am - - - - - NW 19 24 10 13 - - -
29/08:30am - - - - - NNW 17 22 9 12 - - -
29/08:00am - - - - - NNW 15 19 8 10 - - -
29/07:30am - - - - - NNW 13 19 7 10 - - -
29/07:00am - - - - - N 15 24 8 13 - - -
29/06:30am - - - - - NNE 13 20 7 11 - - -
29/06:00am - - - - - NE 13 17 7 9 - - -
29/05:30am - - - - - NNE 24 33 13 18 - - -
29/05:00am - - - - - NNE 26 37 14 20 - - -
29/04:30am - - - - - NNE 26 35 14 19 - - -
29/04:00am - - - - - NNE 22 32 12 17 - - -
29/03:30am - - - - - NNE 24 33 13 18 - - -
29/03:00am - - - - - NNE 24 33 13 18 - - -
29/02:30am - - - - - NNE 20 30 11 16 - - -
29/02:00am - - - - - NNE 19 28 10 15 - - -
29/01:30am - - - - - NNE 22 37 12 20 - - -
29/01:00am - - - - - N 22 35 12 19 - - -
29/12:30am - - - - - N 24 39 13 21 - - -
29/12:29am - - - - - N 24 39 13 21 - - -
29/12:00am - - - - - NNE 7 15 4 8 - - -
 
Date/Time
EST
Temp
°C
App
Temp
°C
Dew
Point
°C
Rel
Hum
%
Delta-T
°C
Wind Press
QNH
hPa
Press
MSL
hPa
Rain since
9am
mm
Dir  Spd
km/h
Gust
km/h
Spd
kts
Gust
kts
28/11:30pm - - - - - N 7 13 4 7 - - -
28/11:00pm - - - - - NNW 15 20 8 11 - - -
28/10:30pm - - - - - NNE 7 11 4 6 - - -
28/10:00pm - - - - - NNE 13 28 7 15 - - -
28/09:30pm - - - - - NNE 13 20 7 11 - - -
28/09:00pm - - - - - NNE 15 24 8 13 - - -
28/08:30pm - - - - - N 13 22 7 12 - - -
28/08:00pm - - - - - NNE 13 19 7 10 - - -
28/07:30pm - - - - - NNE 15 22 8 12 - - -
28/07:00pm - - - - - NNE 19 30 10 16 - - -
28/06:30pm - - - - - NNE 19 32 10 17 - - -
28/06:00pm - - - - - N 19 32 10 17 - - -
28/05:30pm - - - - - N 17 28 9 15 - - -
28/05:00pm - - - - - N 20 32 11 17 - - -
28/04:30pm - - - - - N 20 28 11 15 - - -
28/04:00pm - - - - - N 22 33 12 18 - - -
28/03:30pm - - - - - N 22 39 12 21 - - -
28/03:00pm - - - - - NNE 26 37 14 20 - - -
28/02:30pm - - - - - NNE 22 35 12 19 - - -
28/02:00pm - - - - - NNE 22 32 12 17 - - -
28/01:30pm - - - - - NNE 20 26 11 14 - - -
28/01:00pm - - - - - NNE 19 28 10 15 - - -
28/12:30pm - - - - - NNE 11 17 6 9 - - -
28/12:00pm - - - - - NNE 11 15 6 8 - - -
28/11:30am - - - - - NE 9 13 5 7 - - -
28/11:00am - - - - - NNE 9 17 5 9 - - -
28/10:30am - - - - - NNE 11 15 6 8 - - -
28/10:00am - - - - - NNE 11 17 6 9 - - -
28/09:30am - - - - - NNE 13 19 7 10 - - -
28/09:00am - - - - - NNE 13 19 7 10 - - -
28/08:30am - - - - - NNE 11 17 6 9 - - -
28/08:00am - - - - - NNE 11 15 6 8 - - -
28/07:30am - - - - - NNE 9 13 5 7 - - -
28/07:00am - - - - - NNE 9 15 5 8 - - -
28/06:30am - - - - - NNE 9 13 5 7 - - -
28/06:00am - - - - - NNE 9 11 5 6 - - -
28/05:30am - - - - - NNE 9 11 5 6 - - -
28/05:00am - - - - - NNE 9 11 5 6 - - -
28/04:30am - - - - - NNE 7 9 4 5 - - -
28/04:00am - - - - - NNE 9 11 5 6 - - -
28/03:30am - - - - - NNE 9 13 5 7 - - -
28/03:00am - - - - - NNE 6 9 3 5 - - -
28/02:30am - - - - - NNE 4 6 2 3 - - -
28/02:00am - - - - - N 4 4 2 2 - - -
28/01:30am - - - - - N 6 7 3 4 - - -
28/01:00am - - - - - N 7 11 4 6 - - -
28/12:30am - - - - - N 7 9 4 5 - - -
28/12:00am - - - - - N 7 11 4 6 - - -
 
Date/Time
EST
Temp
°C
App
Temp
°C
Dew
Point
°C
Rel
Hum
%
Delta-T
°C
Wind Press
QNH
hPa
Press
MSL
hPa
Rain since
9am
mm
Dir  Spd
km/h
Gust
km/h
Spd
kts
Gust
kts
27/11:30pm - - - - - N 7 9 4 5 - - -
27/11:00pm - - - - - N 6 9 3 5 - - -
27/10:30pm - - - - - NNW 7 9 4 5 - - -
27/10:00pm - - - - - NNE 7 9 4 5 - - -
27/09:30pm - - - - - NNE 6 7 3 4 - - -
27/09:00pm - - - - - N 6 6 3 3 - - -
27/08:30pm - - - - - NNW 4 7 2 4 - - -

Latest Capital City Observations: Canberra | Sydney | Melbourne | Brisbane | Adelaide | Perth | Hobart | Darwin

Other formats

Comma delimited format used in spreadsheet applications
http://www.bom.gov.au/fwo/IDV60901/IDV60901.95864.axf

JavaScript Object Notation format (JSON) in row-major order
http://www.bom.gov.au/fwo/IDV60901/IDV60901.95864.json

Data quality

Most of these data are generated automatically and are frequently updated. Quality checks on data are not normally performed. It is possible for incorrect values to appear. Refer to information at About Latest Weather Observations and please check the disclaimer before using these data.